Terminal Aerodrome Forecast
Issued by NWS

Home | Current Version | Previous Version | Text Only | Print | Product List | Glossary On
Versions: 1 2 3 4 5 6 7 8 9 10 11 12 13 14 15 16 17 18 19 20
678
FTUS42 KTBW 181225 AAA
TAFPIE
TAF AMD
KPIE 181225Z 1812/1912 04010KT P6SM SCT010 BKN100
      TEMPO 1812/1814 BKN008
     FM181400 05010G17KT P6SM SCT020 BKN100
     FM190200 06011KT P6SM SCT040 BKN250
     FM190700 04008KT P6SM SCT010 SCT250=

USA.gov is the U.S. government's official web portal to all federal, state and local government web resources and services.